Time;durP1;ratioP1;P1;durP2;ratioP2;P2;SDS_P1;SDS_P2;PMS_P1;PMS_P2;Temp;Humidity;BMP_temperature;BMP_pressure;BME280_temperature;BME280_humidity;BME280_pressure;Samples;Min_cycle;Max_cycle;Signal;HPM_P1;HPM_P2
2022/07/11 00:01:12;;;;;;;6.53;1.90;;;17.10;99.90;;;;;;5030519;28;20120;-43
2022/07/11 00:03:39;;;;;;;6.75;2.30;;;17.20;99.90;;;;;;5032369;28;20056;-43
2022/07/11 00:06:06;;;;;;;7.28;2.10;;;17.10;99.90;;;;;;5028420;28;20104;-44
2022/07/11 00:08:33;;;;;;;6.95;2.30;;;17.10;99.90;;;;;;5032289;28;20041;-45
2022/07/11 00:11:01;;;;;;;11.57;2.88;;;17.10;99.90;;;;;;5032532;28;20053;-43
2022/07/11 00:13:28;;;;;;;5.22;2.45;;;17.10;99.90;;;;;;5031079;28;20057;-43
2022/07/11 00:15:54;;;;;;;7.43;2.60;;;17.00;99.90;;;;;;5030614;28;20076;-44
2022/07/11 00:18:23;;;;;;;6.78;2.42;;;17.10;99.90;;;;;;5029010;28;20469;-43
2022/07/11 00:20:50;;;;;;;6.43;2.45;;;17.00;99.90;;;;;;5030215;28;20083;-44
2022/07/11 00:23:17;;;;;;;9.40;3.28;;;17.00;99.90;;;;;;5030055;28;20056;-43
2022/07/11 00:25:43;;;;;;;7.35;3.05;;;17.00;99.90;;;;;;5030896;28;20470;-44
2022/07/11 00:28:11;;;;;;;6.40;3.08;;;17.00;99.90;;;;;;5029734;28;20052;-44
2022/07/11 00:30:38;;;;;;;6.97;2.55;;;17.00;99.90;;;;;;5032893;28;20069;-44
2022/07/11 00:33:05;;;;;;;6.85;2.67;;;16.90;99.90;;;;;;5030552;28;20052;-44
2022/07/11 00:35:32;;;;;;;4.25;1.98;;;16.90;99.90;;;;;;5030795;28;20045;-44
2022/07/11 00:37:58;;;;;;;4.65;2.15;;;16.90;99.90;;;;;;5030694;28;20060;-43
2022/07/11 00:40:25;;;;;;;5.63;1.90;;;16.90;99.90;;;;;;5021564;28;20045;-43
2022/07/11 00:42:52;;;;;;;9.20;2.38;;;17.00;99.90;;;;;;5031712;28;20128;-43
2022/07/11 00:45:20;;;;;;;5.43;2.03;;;17.00;99.90;;;;;;5032784;28;20133;-43
2022/07/11 00:47:47;;;;;;;6.85;2.08;;;16.90;99.90;;;;;;5031586;28;20505;-43
2022/07/11 00:50:14;;;;;;;4.45;1.70;;;16.90;99.90;;;;;;5030510;28;20045;-43
2022/07/11 00:52:41;;;;;;;3.50;1.77;;;16.90;99.90;;;;;;5030670;28;20052;-43
2022/07/11 00:55:08;;;;;;;4.72;2.05;;;16.90;99.90;;;;;;5030437;28;20115;-43
2022/07/11 00:57:35;;;;;;;5.03;2.35;;;16.90;99.90;;;;;;5030846;28;20046;-44
2022/07/11 01:00:02;;;;;;;6.50;2.38;;;16.90;99.90;;;;;;5028947;28;20128;-44
2022/07/11 01:02:30;;;;;;;5.28;2.42;;;16.80;99.90;;;;;;5027663;28;20077;-43
2022/07/11 01:04:57;;;;;;;5.65;2.42;;;16.90;99.90;;;;;;5030254;28;20049;-43
2022/07/11 01:07:24;;;;;;;8.93;3.42;;;16.80;99.90;;;;;;5031543;28;20049;-43
2022/07/11 01:09:50;;;;;;;7.00;3.05;;;16.80;99.90;;;;;;5034155;28;20084;-44
2022/07/11 01:12:17;;;;;;;11.50;3.15;;;16.80;99.90;;;;;;5030935;28;20124;-43
2022/07/11 01:14:52;;;;;;;9.23;3.05;;;16.80;99.90;;;;;;5032183;28;20132;-43
2022/07/11 01:17:18;;;;;;;12.23;3.30;;;16.70;99.90;;;;;;5027963;28;20041;-45
2022/07/11 01:19:47;;;;;;;8.98;3.25;;;16.70;99.90;;;;;;5025923;28;20081;-44
2022/07/11 01:22:14;;;;;;;12.30;3.53;;;16.70;99.90;;;;;;5030831;28;20095;-44
2022/07/11 01:24:42;;;;;;;10.52;3.78;;;16.70;99.90;;;;;;5029545;28;20540;-44
2022/07/11 01:27:09;;;;;;;9.10;2.95;;;16.60;99.90;;;;;;5031166;28;20080;-44
2022/07/11 01:29:36;;;;;;;6.25;3.25;;;16.60;99.90;;;;;;5027784;28;20045;-44
2022/07/11 01:32:03;;;;;;;11.65;3.83;;;16.60;99.90;;;;;;5034145;28;20374;-45
2022/07/11 01:34:30;;;;;;;7.63;2.67;;;16.60;99.90;;;;;;5036211;28;20132;-44
2022/07/11 01:36:56;;;;;;;11.60;3.30;;;16.70;99.90;;;;;;5034491;28;20148;-44
2022/07/11 01:39:23;;;;;;;9.50;3.50;;;16.60;99.90;;;;;;5032607;28;20038;-44
2022/07/11 01:41:51;;;;;;;8.63;3.42;;;16.60;99.90;;;;;;5034622;28;20137;-44
2022/07/11 01:44:18;;;;;;;6.32;2.88;;;16.50;99.90;;;;;;5034592;28;20049;-44
2022/07/11 01:46:45;;;;;;;10.32;3.58;;;16.50;99.90;;;;;;5034926;28;20116;-44
2022/07/11 01:49:11;;;;;;;10.00;3.60;;;16.50;99.90;;;;;;5034637;28;20131;-44
2022/07/11 01:51:38;;;;;;;12.38;3.40;;;16.50;99.90;;;;;;5033979;28;20124;-44
2022/07/11 01:54:05;;;;;;;14.95;5.00;;;16.50;99.90;;;;;;5034487;28;20139;-45
2022/07/11 01:56:32;;;;;;;9.45;3.13;;;16.50;99.90;;;;;;5034401;28;20481;-43
2022/07/11 01:59:01;;;;;;;5.80;2.63;;;16.50;99.90;;;;;;5034116;28;20124;-44
2022/07/11 02:01:27;;;;;;;7.95;3.22;;;16.50;99.90;;;;;;5033337;28;20061;-43
2022/07/11 02:03:55;;;;;;;7.57;3.75;;;16.50;99.90;;;;;;5034002;28;20128;-44
2022/07/11 02:06:21;;;;;;;9.73;3.28;;;16.50;99.90;;;;;;5034204;28;20041;-44
2022/07/11 02:08:48;;;;;;;5.88;2.90;;;16.50;99.90;;;;;;5034017;28;20124;-44
2022/07/11 02:11:15;;;;;;;7.85;3.30;;;16.50;99.90;;;;;;5032396;28;20375;-44
2022/07/11 02:13:41;;;;;;;6.25;3.58;;;16.50;99.90;;;;;;5033842;28;20038;-43
2022/07/11 02:16:10;;;;;;;13.38;4.13;;;16.50;99.90;;;;;;5034065;28;20041;-43
2022/07/11 02:18:36;;;;;;;6.38;3.17;;;16.50;99.90;;;;;;5031676;28;20055;-44
2022/07/11 02:21:03;;;;;;;10.38;4.10;;;16.50;99.90;;;;;;5033438;28;20570;-44
2022/07/11 02:23:30;;;;;;;6.72;3.42;;;16.50;99.90;;;;;;5034295;28;20057;-44
2022/07/11 02:25:57;;;;;;;7.85;3.95;;;16.50;99.90;;;;;;5034285;28;20128;-42
2022/07/11 02:28:24;;;;;;;6.40;3.35;;;16.40;99.90;;;;;;5032257;28;20056;-43
2022/07/11 02:30:50;;;;;;;8.98;3.58;;;16.40;99.90;;;;;;5033720;28;20136;-43
2022/07/11 02:33:19;;;;;;;9.52;3.80;;;16.40;99.90;;;;;;5032847;28;20485;-44
2022/07/11 02:35:45;;;;;;;5.70;3.55;;;16.40;99.90;;;;;;5030937;28;20045;-43
2022/07/11 02:38:14;;;;;;;9.90;4.00;;;16.40;99.90;;;;;;5031329;28;20095;-44
2022/07/11 02:40:41;;;;;;;9.48;3.75;;;16.40;99.90;;;;;;5032670;28;20045;-43
2022/07/11 02:43:08;;;;;;;7.22;3.08;;;16.40;99.90;;;;;;5034185;28;20397;-44
2022/07/11 02:45:36;;;;;;;6.18;3.72;;;16.40;99.90;;;;;;5032713;28;20049;-43
2022/07/11 02:48:02;;;;;;;5.95;3.58;;;16.40;99.90;;;;;;5033606;28;20055;-44
2022/07/11 02:50:31;;;;;;;9.18;3.88;;;16.40;99.90;;;;;;5032167;28;20128;-44
2022/07/11 02:52:57;;;;;;;7.85;3.40;;;16.40;99.90;;;;;;5032520;28;20050;-43
2022/07/11 02:55:24;;;;;;;7.38;3.67;;;16.40;99.90;;;;;;5034087;28;20073;-43
2022/07/11 02:57:51;;;;;;;11.00;4.10;;;16.40;99.90;;;;;;5033801;28;20447;-44
2022/07/11 03:00:18;;;;;;;7.50;3.22;;;16.40;99.90;;;;;;5030836;28;20041;-44
2022/07/11 03:02:45;;;;;;;12.77;4.70;;;16.40;99.90;;;;;;5031285;28;20136;-44
2022/07/11 03:05:13;;;;;;;12.73;4.25;;;16.40;99.90;;;;;;5030543;28;20057;-43
2022/07/11 03:07:41;;;;;;;6.25;2.90;;;16.40;99.90;;;;;;5032995;28;20041;-44
2022/07/11 03:10:08;;;;;;;9.27;3.67;;;16.40;99.90;;;;;;5030453;28;20111;-44
2022/07/11 03:12:35;;;;;;;8.63;4.10;;;16.40;99.90;;;;;;5031306;28;20128;-45
2022/07/11 03:15:02;;;;;;;9.35;4.05;;;16.40;99.90;;;;;;5031595;28;20059;-44
2022/07/11 03:17:29;;;;;;;10.15;3.78;;;16.40;99.90;;;;;;5031889;28;20128;-44
2022/07/11 03:19:55;;;;;;;6.32;3.00;;;16.30;99.90;;;;;;5030142;28;20076;-43
2022/07/11 03:22:23;;;;;;;9.20;4.38;;;16.40;99.90;;;;;;5031380;28;20111;-42
2022/07/11 03:24:51;;;;;;;9.88;4.07;;;16.40;99.90;;;;;;5030705;28;20073;-42
2022/07/11 03:27:18;;;;;;;8.48;3.70;;;16.40;99.90;;;;;;5031376;28;20049;-43
2022/07/11 03:29:44;;;;;;;11.10;4.20;;;16.40;99.90;;;;;;5032246;28;20088;-42
2022/07/11 03:32:11;;;;;;;13.77;4.35;;;16.40;99.90;;;;;;5032400;28;20044;-44
2022/07/11 03:34:38;;;;;;;10.02;4.15;;;16.40;99.90;;;;;;5031914;28;20124;-43
2022/07/11 03:37:05;;;;;;;9.27;4.57;;;16.40;99.90;;;;;;5030556;28;20569;-43
2022/07/11 03:39:32;;;;;;;8.45;4.18;;;16.40;99.90;;;;;;5033297;28;20462;-43
2022/07/11 03:42:01;;;;;;;8.95;4.68;;;16.30;99.90;;;;;;5032358;28;20107;-42
2022/07/11 03:44:27;;;;;;;9.77;4.30;;;16.40;99.90;;;;;;5032673;28;20057;-43
2022/07/11 03:46:54;;;;;;;8.77;4.47;;;16.30;99.90;;;;;;5032661;28;20064;-44
2022/07/11 03:49:21;;;;;;;11.40;5.15;;;16.30;99.90;;;;;;5023156;28;20088;-43
2022/07/11 03:51:48;;;;;;;5.75;3.70;;;16.30;99.90;;;;;;5030339;28;20161;-43
2022/07/11 03:54:14;;;;;;;10.35;4.80;;;16.30;99.90;;;;;;5027600;28;20382;-44
2022/07/11 03:56:41;;;;;;;8.05;3.65;;;16.30;99.90;;;;;;5030554;28;20063;-43
2022/07/11 03:59:10;;;;;;;7.65;3.72;;;16.30;99.90;;;;;;5031053;28;20091;-43
2022/07/11 04:01:37;;;;;;;7.30;3.80;;;16.30;99.90;;;;;;5031237;28;20049;-43
2022/07/11 04:04:05;;;;;;;7.65;4.03;;;16.40;99.90;;;;;;5030791;28;20076;-43
2022/07/11 04:06:32;;;;;;;7.68;4.00;;;16.30;99.90;;;;;;5029133;28;20056;-44
2022/07/11 04:08:59;;;;;;;6.68;3.90;;;16.40;99.90;;;;;;5031696;28;20084;-43
2022/07/11 04:11:25;;;;;;;6.63;3.90;;;16.40;99.90;;;;;;5031072;28;20128;-43
2022/07/11 04:13:52;;;;;;;5.88;3.70;;;16.30;99.90;;;;;;5033023;28;20045;-43
2022/07/11 04:16:20;;;;;;;8.82;4.18;;;16.40;99.90;;;;;;5031405;28;20049;-43
2022/07/11 04:18:47;;;;;;;7.50;3.70;;;16.40;99.90;;;;;;5026369;28;20071;-43
2022/07/11 04:21:14;;;;;;;8.07;3.72;;;16.40;99.90;;;;;;5032380;28;20467;-43
2022/07/11 04:23:40;;;;;;;6.20;3.70;;;16.40;99.90;;;;;;5031497;28;20456;-44
2022/07/11 04:26:07;;;;;;;4.70;3.78;;;16.40;99.90;;;;;;5032632;28;20462;-44
2022/07/11 04:28:34;;;;;;;8.43;3.50;;;16.40;99.90;;;;;;5033042;28;20049;-44
2022/07/11 04:31:01;;;;;;;4.97;3.38;;;16.40;99.90;;;;;;5030781;28;20119;-45
2022/07/11 04:33:29;;;;;;;4.75;3.50;;;16.40;99.90;;;;;;5030073;28;20069;-44
2022/07/11 04:35:56;;;;;;;6.05;3.03;;;16.40;99.90;;;;;;5029293;28;20049;-44
2022/07/11 04:38:23;;;;;;;5.25;3.00;;;16.40;99.90;;;;;;5030819;28;20148;-44
2022/07/11 04:40:50;;;;;;;4.05;2.70;;;16.40;99.90;;;;;;5031586;28;20477;-43
2022/07/11 04:43:17;;;;;;;6.38;2.75;;;16.30;99.90;;;;;;5031854;28;20129;-44
2022/07/11 04:45:44;;;;;;;5.80;2.85;;;16.30;99.90;;;;;;5030907;28;20048;-44
2022/07/11 04:48:11;;;;;;;5.70;2.80;;;16.30;99.90;;;;;;5030831;28;20123;-43
2022/07/11 04:50:39;;;;;;;4.65;2.10;;;16.30;99.90;;;;;;5025993;28;20033;-42
2022/07/11 04:53:05;;;;;;;3.25;2.00;;;16.40;99.90;;;;;;5032784;28;20132;-43
2022/07/11 04:55:32;;;;;;;3.17;2.00;;;16.40;99.90;;;;;;5032590;28;20033;-43
2022/07/11 04:57:59;;;;;;;3.25;2.08;;;16.40;99.90;;;;;;5031247;28;20484;-44
2022/07/11 05:00:26;;;;;;;3.40;2.20;;;16.40;99.90;;;;;;5028098;28;21223;-43
2022/07/11 05:02:53;;;;;;;3.30;2.38;;;16.50;99.90;;;;;;5030275;28;20076;-44
2022/07/11 05:05:21;;;;;;;3.17;2.00;;;16.50;99.90;;;;;;5033234;28;20128;-42
2022/07/11 05:07:49;;;;;;;3.33;2.15;;;16.50;99.90;;;;;;5035660;28;20053;-43
2022/07/11 05:10:16;;;;;;;5.45;2.15;;;16.50;99.90;;;;;;5034077;28;20049;-43
2022/07/11 05:12:43;;;;;;;5.57;2.00;;;16.50;99.90;;;;;;5032436;28;20065;-43
2022/07/11 05:15:10;;;;;;;4.45;1.90;;;16.60;99.90;;;;;;5034117;28;20045;-43
2022/07/11 05:17:36;;;;;;;2.30;1.75;;;16.60;99.90;;;;;;5032275;28;20065;-43
2022/07/11 05:20:04;;;;;;;3.90;1.92;;;16.60;99.90;;;;;;5032734;28;20143;-44
2022/07/11 05:22:31;;;;;;;3.10;1.60;;;16.60;99.90;;;;;;5031925;28;20085;-43
2022/07/11 05:24:59;;;;;;;3.72;1.45;;;16.70;99.90;;;;;;5034007;28;20428;-43
2022/07/11 05:27:26;;;;;;;6.18;1.60;;;16.70;99.90;;;;;;5033595;28;20136;-43
2022/07/11 05:29:52;;;;;;;2.85;1.50;;;16.70;99.90;;;;;;5031090;28;20046;-43
2022/07/11 05:32:19;;;;;;;2.72;2.05;;;16.70;99.90;;;;;;5036168;28;20132;-43
2022/07/11 05:34:46;;;;;;;1.92;1.73;;;16.70;99.90;;;;;;5032863;28;20081;-43
2022/07/11 05:37:13;;;;;;;2.90;2.17;;;16.70;99.90;;;;;;5050765;28;20159;-43
2022/07/11 05:39:39;;;;;;;5.15;1.73;;;16.70;99.90;;;;;;5032872;28;20492;-42
2022/07/11 05:42:08;;;;;;;3.00;1.50;;;16.70;99.90;;;;;;5040626;28;20568;-43
2022/07/11 05:44:35;;;;;;;3.45;1.60;;;16.70;99.90;;;;;;5028777;28;20516;-43
2022/07/11 05:47:02;;;;;;;4.07;2.10;;;16.70;99.90;;;;;;5026530;28;20045;-43
2022/07/11 05:49:28;;;;;;;2.47;1.60;;;16.70;99.90;;;;;;5030482;28;20053;-44
2022/07/11 05:51:55;;;;;;;1.98;1.33;;;16.70;99.90;;;;;;5024491;28;20509;-44
2022/07/11 05:54:22;;;;;;;2.05;1.48;;;16.70;99.90;;;;;;5035287;28;20500;-41
2022/07/11 05:56:49;;;;;;;3.47;1.40;;;16.70;99.90;;;;;;5031237;28;20065;-42
2022/07/11 05:59:17;;;;;;;4.28;1.45;;;16.80;99.90;;;;;;5030800;28;20136;-44
2022/07/11 06:01:43;;;;;;;1.65;1.15;;;16.80;99.90;;;;;;5021201;28;20096;-44
2022/07/11 06:04:10;;;;;;;2.30;1.33;;;16.90;99.90;;;;;;5031587;28;20042;-43
2022/07/11 06:06:37;;;;;;;1.92;1.05;;;16.90;99.90;;;;;;5029354;28;20045;-43
2022/07/11 06:09:03;;;;;;;2.70;1.20;;;17.00;99.90;;;;;;5028923;28;20460;-42
2022/07/11 06:11:29;;;;;;;2.35;1.30;;;17.00;99.90;;;;;;5032416;28;20120;-43
2022/07/11 06:13:56;;;;;;;5.10;1.23;;;17.10;99.90;;;;;;5027698;28;20119;-43
2022/07/11 06:16:24;;;;;;;3.42;1.23;;;17.10;99.90;;;;;;5031031;28;20041;-42
2022/07/11 06:18:52;;;;;;;2.28;1.27;;;17.20;99.90;;;;;;5021699;28;20050;-43
2022/07/11 06:21:19;;;;;;;6.03;1.17;;;17.20;99.90;;;;;;5028154;28;20061;-43
2022/07/11 06:23:45;;;;;;;2.35;1.20;;;17.20;99.90;;;;;;5030487;28;20069;-43
2022/07/11 06:26:13;;;;;;;2.45;1.20;;;17.20;99.90;;;;;;5032277;28;20096;-43
2022/07/11 06:28:40;;;;;;;2.70;1.25;;;17.30;99.90;;;;;;5034770;28;20088;-43
2022/07/11 06:31:07;;;;;;;3.33;1.33;;;17.30;99.90;;;;;;5029190;28;20120;-43
2022/07/11 06:33:35;;;;;;;2.78;0.98;;;17.40;99.90;;;;;;5033140;28;20042;-44
2022/07/11 06:36:02;;;;;;;2.65;1.25;;;17.40;99.90;;;;;;5029598;28;20056;-42
2022/07/11 06:38:29;;;;;;;2.45;0.95;;;17.50;99.90;;;;;;5032807;28;20057;-43
2022/07/11 06:40:56;;;;;;;1.90;0.90;;;17.50;99.90;;;;;;5030681;28;20040;-42
2022/07/11 06:43:23;;;;;;;2.95;1.00;;;17.60;99.90;;;;;;5032138;28;20045;-43
2022/07/11 06:45:49;;;;;;;2.45;1.20;;;17.60;99.90;;;;;;5030711;28;20132;-43
2022/07/11 06:48:16;;;;;;;2.08;1.10;;;17.70;99.90;;;;;;5028591;28;20103;-43
2022/07/11 06:50:44;;;;;;;2.25;1.13;;;17.80;99.90;;;;;;5026980;28;20123;-43
2022/07/11 06:53:11;;;;;;;1.40;0.95;;;17.80;99.90;;;;;;5030137;28;20080;-42
2022/07/11 06:55:38;;;;;;;1.63;0.90;;;17.80;99.90;;;;;;5031730;28;20047;-43
2022/07/11 06:58:05;;;;;;;2.92;1.00;;;17.90;99.90;;;;;;5030697;28;20057;-42
2022/07/11 07:00:32;;;;;;;3.25;1.20;;;17.90;99.90;;;;;;5029224;28;20042;-42
2022/07/11 07:02:58;;;;;;;2.65;1.00;;;17.90;99.90;;;;;;5030389;28;20137;-43
2022/07/11 07:05:25;;;;;;;4.38;1.17;;;17.90;99.90;;;;;;5030649;28;20145;-43
2022/07/11 07:07:53;;;;;;;1.58;0.80;;;17.90;99.90;;;;;;5029152;28;20388;-43
2022/07/11 07:10:20;;;;;;;2.35;1.05;;;18.00;99.90;;;;;;5028954;28;20556;-43
2022/07/11 07:12:47;;;;;;;2.85;1.20;;;18.10;99.90;;;;;;5028873;28;20132;-42
2022/07/11 07:15:14;;;;;;;2.38;0.73;;;18.10;99.90;;;;;;5029791;28;20111;-43
2022/07/11 07:17:41;;;;;;;4.40;1.15;;;18.10;99.90;;;;;;5024632;28;20136;-42
2022/07/11 07:20:10;;;;;;;1.83;0.80;;;18.10;99.90;;;;;;5027698;28;20065;-43
2022/07/11 07:22:37;;;;;;;2.58;1.00;;;18.10;99.90;;;;;;5026841;28;20270;-43
2022/07/11 07:25:07;;;;;;;3.03;0.80;;;18.10;99.90;;;;;;5028594;28;20072;-43
2022/07/11 07:27:34;;;;;;;2.00;0.73;;;18.20;99.90;;;;;;5031442;28;20409;-43
2022/07/11 07:30:00;;;;;;;6.65;1.17;;;18.20;99.90;;;;;;5030176;28;20129;-45
2022/07/11 07:32:27;;;;;;;2.03;0.90;;;18.20;99.90;;;;;;5030143;28;20128;-43
2022/07/11 07:34:54;;;;;;;1.58;0.90;;;18.20;99.90;;;;;;5029008;28;20457;-43
2022/07/11 07:37:21;;;;;;;3.25;0.90;;;18.30;99.90;;;;;;5031582;28;20478;-43
2022/07/11 07:39:47;;;;;;;3.03;0.82;;;18.30;99.90;;;;;;5028769;28;20697;-43
2022/07/11 07:42:15;;;;;;;1.77;0.82;;;18.30;99.90;;;;;;5029241;28;20457;-42
2022/07/11 07:44:42;;;;;;;2.42;0.90;;;18.30;99.90;;;;;;5031016;28;20485;-42
2022/07/11 07:47:09;;;;;;;2.13;0.70;;;18.30;99.90;;;;;;5030993;28;20084;-42
2022/07/11 07:49:36;;;;;;;2.13;0.73;;;18.30;99.90;;;;;;5030530;28;20081;-42
2022/07/11 07:52:03;;;;;;;2.03;0.75;;;18.30;99.90;;;;;;5030611;28;20092;-43
2022/07/11 07:54:30;;;;;;;2.63;1.02;;;18.40;99.90;;;;;;5031210;28;20120;-42
2022/07/11 07:56:57;;;;;;;1.73;0.73;;;18.50;99.90;;;;;;5031845;28;20084;-43
2022/07/11 07:59:25;;;;;;;2.63;0.60;;;18.50;99.90;;;;;;5029692;28;20052;-43
2022/07/11 08:01:51;;;;;;;2.45;0.70;;;18.60;99.90;;;;;;5026996;28;20473;-43
2022/07/11 08:04:18;;;;;;;2.58;0.60;;;18.70;99.90;;;;;;5031000;28;20115;-42
2022/07/11 08:06:44;;;;;;;3.63;0.90;;;18.80;99.90;;;;;;5031315;28;20485;-42
2022/07/11 08:09:12;;;;;;;3.25;1.00;;;18.90;99.90;;;;;;5025699;28;20450;-43
2022/07/11 08:11:39;;;;;;;2.97;0.80;;;19.00;99.90;;;;;;5023933;28;20065;-42
2022/07/11 08:14:07;;;;;;;5.22;0.95;;;19.10;99.90;;;;;;5030526;28;20076;-43
2022/07/11 08:16:35;;;;;;;2.38;0.60;;;19.20;99.90;;;;;;5031340;28;20048;-42
2022/07/11 08:19:03;;;;;;;0.45;0.30;;;19.20;99.90;;;;;;5030613;28;20073;-42
2022/07/11 08:21:30;;;;;;;0.80;0.22;;;19.10;99.90;;;;;;5030684;28;20037;-43
2022/07/11 08:23:57;;;;;;;1.30;0.30;;;19.00;99.90;;;;;;5030219;28;20056;-44
2022/07/11 08:26:24;;;;;;;0.70;0.30;;;19.00;99.90;;;;;;5029707;28;20046;-43
2022/07/11 08:28:51;;;;;;;0.68;0.30;;;18.90;99.90;;;;;;5031837;28;20045;-43
2022/07/11 08:31:18;;;;;;;0.35;0.20;;;18.90;99.90;;;;;;5029661;28;20037;-43
2022/07/11 08:33:46;;;;;;;1.20;0.50;;;18.90;99.90;;;;;;5028387;28;20129;-43
2022/07/11 08:36:13;;;;;;;0.65;0.22;;;19.00;99.90;;;;;;5030005;28;20389;-43
2022/07/11 08:38:43;;;;;;;0.35;0.20;;;19.20;99.90;;;;;;5028137;28;20148;-44
2022/07/11 08:41:11;;;;;;;0.65;0.30;;;19.20;99.90;;;;;;5027631;28;20493;-44
2022/07/11 08:43:37;;;;;;;0.93;0.35;;;19.20;99.90;;;;;;5030778;28;20431;-44
2022/07/11 08:46:04;;;;;;;0.98;0.30;;;19.40;99.90;;;;;;5030684;28;20081;-42
2022/07/11 08:48:31;;;;;;;1.10;0.40;;;19.60;99.90;;;;;;5029679;28;20065;-43
2022/07/11 08:50:59;;;;;;;1.23;0.60;;;19.80;99.90;;;;;;5030950;28;20124;-43
2022/07/11 08:53:27;;;;;;;1.45;0.30;;;20.00;99.90;;;;;;5030051;28;20561;-43
2022/07/11 08:55:54;;;;;;;0.65;0.20;;;20.10;99.90;;;;;;5029396;28;20050;-44
2022/07/11 08:58:20;;;;;;;0.50;0.22;;;20.20;99.90;;;;;;5028545;28;20069;-43
2022/07/11 09:00:47;;;;;;;1.02;0.43;;;20.30;99.90;;;;;;5030656;28;20053;-43
2022/07/11 09:03:15;;;;;;;1.65;0.50;;;20.50;99.90;;;;;;5028880;28;20366;-43
2022/07/11 09:05:42;;;;;;;1.40;0.40;;;20.70;99.90;;;;;;5029102;28;20474;-43
2022/07/11 09:08:10;;;;;;;0.60;0.40;;;20.80;99.90;;;;;;5028688;28;20069;-44
2022/07/11 09:10:39;;;;;;;0.55;0.20;;;20.90;99.90;;;;;;5029663;28;20077;-44
2022/07/11 09:13:06;;;;;;;0.20;0.20;;;21.00;99.90;;;;;;5030277;28;20091;-43
2022/07/11 09:15:38;;;;;;;0.80;0.30;;;21.00;99.90;;;;;;5026302;28;20389;-43
2022/07/11 09:18:05;;;;;;;0.80;0.40;;;21.10;99.90;;;;;;5027829;28;20453;-43
2022/07/11 09:26:22;;;;;;;1.27;0.35;;;20.70;99.90;;;;;;5030451;28;20050;-44
2022/07/11 09:29:00;;;;;;;1.10;0.40;;;20.60;99.90;;;;;;5028492;28;20494;-43
2022/07/11 09:31:28;;;;;;;1.40;0.40;;;20.70;99.90;;;;;;5028773;28;20497;-44
2022/07/11 09:34:02;;;;;;;0.47;0.30;;;20.70;99.90;;;;;;5020910;28;20041;-43
2022/07/11 09:36:40;;;;;;;0.65;0.35;;;20.80;99.90;;;;;;5027242;28;20132;-43
2022/07/11 09:39:09;;;;;;;0.63;0.30;;;21.00;99.90;;;;;;5030013;28;20389;-43
2022/07/11 09:41:36;;;;;;;1.38;0.82;;;21.10;99.90;;;;;;5028840;28;20041;-43
2022/07/11 09:44:10;;;;;;;1.38;0.32;;;21.00;99.90;;;;;;5030412;28;20069;-44
2022/07/11 09:46:36;;;;;;;0.32;0.20;;;21.00;99.90;;;;;;5028746;28;20041;-43
2022/07/11 09:49:03;;;;;;;0.95;0.30;;;21.00;99.90;;;;;;5031252;28;20416;-43
2022/07/11 09:51:32;;;;;;;1.88;0.80;;;21.00;99.90;;;;;;5032667;28;20084;-43
2022/07/11 09:53:59;;;;;;;0.38;0.22;;;20.90;99.90;;;;;;5034490;28;20046;-44
2022/07/11 09:56:27;;;;;;;0.77;0.40;;;21.00;99.90;;;;;;5034124;28;20045;-44
2022/07/11 09:58:59;;;;;;;0.40;0.30;;;21.00;99.90;;;;;;5031200;28;20517;-43
2022/07/11 10:01:27;;;;;;;0.98;0.30;;;21.00;99.90;;;;;;5033974;28;20053;-44
2022/07/11 10:03:54;;;;;;;3.15;0.57;;;21.10;99.90;;;;;;5030123;28;20046;-44
2022/07/11 10:06:22;;;;;;;0.43;0.30;;;21.20;99.90;;;;;;5030620;28;20501;-42
2022/07/11 10:08:48;;;;;;;0.40;0.20;;;21.30;99.90;;;;;;5028207;28;20082;-42
2022/07/11 10:11:15;;;;;;;2.28;0.20;;;21.50;99.90;;;;;;5030749;28;20049;-43
2022/07/11 10:13:43;;;;;;;0.52;0.20;;;21.50;99.90;;;;;;5030674;28;20132;-43
2022/07/11 10:16:15;;;;;;;0.35;0.20;;;21.60;99.90;;;;;;5032705;28;20141;-43
2022/07/11 10:18:46;;;;;;;3.05;0.50;;;21.60;99.90;;;;;;5033434;28;20053;-43
2022/07/11 10:21:14;;;;;;;0.30;0.20;;;21.60;99.90;;;;;;5032188;28;20490;-44
2022/07/11 10:23:47;;;;;;;0.90;0.28;;;21.60;99.90;;;;;;5030764;28;20077;-42
2022/07/11 10:26:17;;;;;;;1.63;0.35;;;21.60;99.90;;;;;;5032755;28;20053;-44
2022/07/11 10:28:48;;;;;;;2.00;0.30;;;21.60;99.90;;;;;;5032601;28;20516;-44
2022/07/11 10:31:21;;;;;;;2.83;0.40;;;21.60;99.90;;;;;;5031972;28;20092;-43
2022/07/11 10:34:01;;;;;;;0.40;0.40;;;21.60;99.90;;;;;;5032047;28;20157;-43
2022/07/11 10:36:29;;;;;;;1.23;0.35;;;21.60;99.90;;;;;;5048088;28;20397;-43
2022/07/11 10:39:14;;;;;;;1.98;0.30;;;21.60;99.90;;;;;;5032773;28;20049;-43
2022/07/11 10:41:40;;;;;;;0.47;0.30;;;21.60;99.90;;;;;;5032846;28;20050;-44
2022/07/11 10:44:09;;;;;;;2.50;0.40;;;21.60;99.90;;;;;;5032914;28;20045;-43
2022/07/11 10:46:36;;;;;;;0.80;0.20;;;21.70;99.90;;;;;;5027806;28;20050;-43
2022/07/11 10:49:08;;;;;;;0.75;0.30;;;21.80;99.90;;;;;;5029571;28;20128;-43
2022/07/11 10:51:37;;;;;;;0.30;0.20;;;21.90;99.90;;;;;;5031953;28;20120;-42
2022/07/11 10:54:12;;;;;;;0.38;0.20;;;21.90;99.80;;;;;;5033921;28;20128;-43
2022/07/11 10:56:51;;;;;;;0.35;0.20;;;21.90;99.50;;;;;;5032937;28;20048;-43
2022/07/11 10:59:19;;;;;;;0.65;0.30;;;21.90;99.70;;;;;;5031628;28;20140;-42
2022/07/11 11:02:10;;;;;;;1.83;0.20;;;21.90;99.50;;;;;;5031178;28;20045;-42
2022/07/11 11:04:48;;;;;;;1.70;0.30;;;21.90;99.60;;;;;;5026999;28;20485;-42
2022/07/11 11:07:31;;;;;;;0.43;0.25;;;21.90;99.70;;;;;;5037373;28;20042;-42
2022/07/11 11:09:58;;;;;;;0.77;0.30;;;21.80;99.50;;;;;;5032114;28;20096;-43
2022/07/11 11:12:58;;;;;;;0.77;0.40;;;21.80;99.40;;;;;;5034912;28;20084;-43
2022/07/11 11:15:36;;;;;;;3.88;0.30;;;21.80;99.40;;;;;;5028330;28;20133;-43
2022/07/11 11:18:36;;;;;;;1.10;0.25;;;21.80;99.90;;;;;;5026801;28;20057;-42
2022/07/11 11:21:24;;;;;;;0.20;0.20;;;21.90;99.10;;;;;;5029935;28;20054;-43
2022/07/11 11:24:08;;;;;;;0.85;0.40;;;21.90;99.10;;;;;;5032780;28;20132;-43
2022/07/11 11:26:44;;;;;;;2.15;0.45;;;22.00;99.00;;;;;;5036262;28;20049;-44
2022/07/11 11:29:10;;;;;;;2.08;0.38;;;22.00;98.80;;;;;;5029084;28;20080;-42
2022/07/11 11:31:38;;;;;;;1.75;0.32;;;22.00;98.90;;;;;;5031398;28;20087;-44
2022/07/11 11:34:05;;;;;;;0.55;0.30;;;22.00;99.00;;;;;;5028625;28;20065;-44
2022/07/11 11:36:32;;;;;;;0.90;0.32;;;22.10;98.70;;;;;;5031786;28;20080;-43
2022/07/11 11:38:59;;;;;;;0.98;0.35;;;22.10;98.80;;;;;;5033306;28;20056;-44
2022/07/11 11:41:27;;;;;;;0.52;0.40;;;22.20;98.90;;;;;;5033056;28;20132;-43
2022/07/11 11:43:54;;;;;;;0.80;0.20;;;22.30;98.90;;;;;;5031788;28;20053;-43
2022/07/11 11:46:24;;;;;;;1.15;0.28;;;22.40;98.40;;;;;;5032132;28;20389;-42
2022/07/11 11:48:55;;;;;;;0.50;0.30;;;22.50;97.50;;;;;;5033814;28;20103;-43
2022/07/11 11:51:22;;;;;;;1.13;0.30;;;22.60;97.80;;;;;;5032354;28;20447;-43
2022/07/11 11:53:49;;;;;;;1.05;0.20;;;22.60;97.90;;;;;;5032668;28;20299;-43
2022/07/11 11:56:16;;;;;;;1.48;0.30;;;22.60;97.80;;;;;;5033558;28;20043;-43
2022/07/11 11:58:44;;;;;;;1.27;0.40;;;22.60;97.20;;;;;;5031826;28;20041;-43
2022/07/11 12:01:10;;;;;;;0.20;0.20;;;22.60;97.20;;;;;;5030281;28;21102;-42
2022/07/11 12:03:52;;;;;;;0.47;0.30;;;22.50;97.50;;;;;;5032162;28;20076;-43
2022/07/11 12:06:21;;;;;;;0.82;0.30;;;22.60;97.80;;;;;;5031375;28;20466;-43
2022/07/11 12:08:48;;;;;;;0.80;0.25;;;22.70;97.90;;;;;;5032418;28;20089;-43
2022/07/11 12:11:15;;;;;;;0.68;0.30;;;22.80;97.90;;;;;;5032016;28;20077;-43
2022/07/11 12:13:42;;;;;;;1.70;0.40;;;22.80;97.80;;;;;;5030177;28;20140;-43
2022/07/11 12:19:06;;;;;;;0.75;0.30;;;23.00;96.90;;;;;;5025318;28;20049;-42
2022/07/11 12:21:33;;;;;;;1.52;0.40;;;23.00;97.20;;;;;;5030748;28;20379;-43
2022/07/11 12:24:00;;;;;;;1.65;0.47;;;23.00;96.90;;;;;;5031844;28;20127;-43
2022/07/11 12:26:28;;;;;;;0.50;0.30;;;23.00;96.80;;;;;;5032395;28;20052;-43
2022/07/11 12:29:10;;;;;;;2.97;0.43;;;23.10;97.00;;;;;;5032139;28;20057;-44
2022/07/11 12:31:46;;;;;;;0.63;0.30;;;23.20;97.00;;;;;;5027955;28;20045;-44
2022/07/11 12:34:15;;;;;;;0.98;0.40;;;23.20;97.00;;;;;;5032044;28;20473;-44
2022/07/11 12:36:42;;;;;;;0.65;0.20;;;23.30;96.60;;;;;;5026127;28;20048;-44
2022/07/11 12:39:09;;;;;;;1.42;0.50;;;23.30;96.40;;;;;;5029692;28;20135;-44
2022/07/11 12:41:36;;;;;;;0.80;0.30;;;23.30;96.10;;;;;;5031159;28;20041;-43
2022/07/11 12:46:47;;;;;;;0.90;0.40;;;23.20;96.20;;;;;;5027469;28;20076;-44
2022/07/11 12:49:16;;;;;;;2.83;0.30;;;23.20;96.20;;;;;;5032005;28;20045;-43
2022/07/11 12:51:44;;;;;;;0.50;0.40;;;23.20;96.20;;;;;;5029357;28;20140;-44
2022/07/11 12:54:11;;;;;;;1.63;0.40;;;23.30;96.30;;;;;;5031692;28;20104;-43
2022/07/11 12:56:38;;;;;;;1.65;0.30;;;23.50;96.10;;;;;;5032115;28;20047;-44
2022/07/11 12:59:06;;;;;;;2.13;0.40;;;23.50;96.10;;;;;;5030137;28;20453;-44
2022/07/11 13:01:32;;;;;;;0.65;0.30;;;23.50;96.00;;;;;;5030951;28;20045;-44